• Join FlightAware (Why Join?)
  • Login
  • US Flag GB Flag 
05:14 EDT


 

Airport Tracker/Info


-or-


 

Live Flight TrackerFlight Track Log ✈ AAL1862 ✈ 02-Oct-2012 ✈ KDFW - KSTL

Flight Track Log - Related Links

Times and Time Zones

All times are in EDT time to prevent confusion due to time zone crossing. See the AAL1862 flight status page for this flight to view local times or setup timezone preferences in your user account.

Time Position Orientation Groundspeed Altitude Reporting Facility
EDT Latitude Longitude Course Direction KTS MPH feet Rate Location/Type
08:03 32.9133 -97.0297 North 162 186 1,500  Level FAA TRACON SMA TRACON (SMA)
08:03 32.9303 -97.0294 360° North 158 182 2,300 1,920 Climbing FAA TRACON SMA TRACON (SMA)
08:04 32.9450 -97.0294 360° North 168 193 2,700 1,260 Climbing FAA TRACON SMA TRACON (SMA)
08:04 32.9619 -97.0294 North 188 216 3,100 1,620 Climbing FAA TRACON SMA TRACON (SMA)
08:04 32.9803 -97.0286 North 209 241 3,800 2,400 Climbing FAA TRACON SMA TRACON (SMA)
08:05 33.0033 -97.0272 North 216 249 4,700 2,520 Climbing FAA TRACON SMA TRACON (SMA)
08:05 33.0222 -97.0267 North 218 251 5,500 2,100 Climbing FAA TRACON SMA TRACON (SMA)
08:05 33.0411 -97.0258 North 220 253 6,100 1,800 Climbing FAA TRACON SMA TRACON (SMA)
08:06 33.0606 -97.0250 North 226 260 6,700 2,280 Climbing FAA TRACON SMA TRACON (SMA)
08:06 33.0850 -97.0228 26° Northeast 230 265 7,600 2,160 Climbing FAA TRACON SMA TRACON (SMA)
08:06 33.1025 -97.0125 25° Northeast 229 264 8,200 1,860 Climbing FAA TRACON SMA TRACON (SMA)
08:07 33.1203 -97.0025 23° Northeast 230 265 8,900 2,400 Climbing FAA TRACON SMA TRACON (SMA)
08:07 33.1433 -96.9908 24° Northeast 233 268 9,800 1,620 Climbing FAA TRACON SMA TRACON (SMA)
08:07 33.1622 -96.9808 24° Northeast 239 275 10,000 300 Climbing FAA TRACON SMA TRACON (SMA)
08:08 33.1822 -96.9700 24° Northeast 250 288 10,000  Level FAA TRACON SMA TRACON (SMA)
08:08 33.2053 -96.9575 28° Northeast 241 277 10,000  Level FAA TRACON SMA TRACON (SMA)
08:08 33.2231 -96.9464 17° North 234 269 10,000  Level FAA TRACON SMA TRACON (SMA)
08:09 33.2464 -96.9378 357° North 232 267 10,000  Level FAA TRACON SMA TRACON (SMA)
08:09 33.2667 -96.9392 338° Northwest 236 272 10,000  Level FAA TRACON SMA TRACON (SMA)
08:09 33.2853 -96.9483 315° West 237 273 10,000  Level FAA TRACON SMA TRACON (SMA)
08:10 33.3031 -96.9694 289° West 243 280 10,000  Level FAA TRACON SMA TRACON (SMA)
08:10 33.3103 -96.9939 273° West 251 289 10,000  Level FAA TRACON SMA TRACON (SMA)
08:10 33.3114 -97.0194 265° West 252 290 10,000  Level FAA TRACON SMA TRACON (SMA)
08:11 33.3097 -97.0444 246° West 251 289 10,000  Level FAA TRACON SMA TRACON (SMA)
08:11 33.2992 -97.0733 228° Southwest 255 293 10,000  Level FAA TRACON SMA TRACON (SMA)
08:11 33.2847 -97.0925 223° Southwest 256 295 10,000  Level FAA TRACON SMA TRACON (SMA)
08:12 33.2647 -97.1150 222° Southwest 255 293 10,000  Level FAA TRACON SMA TRACON (SMA)
08:12 33.2486 -97.1325 224° Southwest 255 293 10,000  Level FAA TRACON SMA TRACON (SMA)
08:12 33.2328 -97.1508 223° Southwest 255 293 10,000  Level FAA TRACON SMA TRACON (SMA)
08:13 33.2133 -97.1722 202° Southwest 253 291 10,000  Level FAA TRACON SMA TRACON (SMA)
08:13 33.1942 -97.1817 198° South 247 284 10,000  Level FAA TRACON SMA TRACON (SMA)
08:13 33.1750 -97.1889 198° South 240 276 10,000  Level FAA TRACON SMA TRACON (SMA)
08:14 33.1503 -97.1983 197° South 240 276 10,000  Level FAA TRACON SMA TRACON (SMA)
08:14 33.1303 -97.2058 190° South 240 276 10,000  Level FAA TRACON SMA TRACON (SMA)
08:14 33.1106 -97.2100 189° South 239 275 10,000  Level FAA TRACON SMA TRACON (SMA)
08:15 33.0847 -97.2147 188° South 239 275 10,000  Level FAA TRACON SMA TRACON (SMA)
08:15 33.0639 -97.2181 179° South 241 277 10,000  Level FAA TRACON SMA TRACON (SMA)
08:15 33.0433 -97.2178 179° South 240 276 10,000  Level FAA TRACON SMA TRACON (SMA)
08:16 33.0181 -97.2172 179° South 239 275 10,000  Level FAA TRACON SMA TRACON (SMA)
08:16 32.9919 -97.2167 178° South 240 276 10,000  Level FAA TRACON SMA TRACON (SMA)
08:16 32.9708 -97.2158 177° South 243 280 10,000 -480 Level FAA TRACON SMA TRACON (SMA)
08:17 32.9500 -97.2147 175° South 244 281 9,700 -780 Descending FAA TRACON SMA TRACON (SMA)
08:17 32.9297 -97.2128 177° South 241 277 9,500 -660 Descending FAA TRACON SMA TRACON (SMA)
08:17 32.9100 -97.2114 177° South 233 268 9,300 -780 Descending FAA TRACON SMA TRACON (SMA)
08:18 32.8864 -97.2097 176° South 221 254 9,000 -1,080 Descending FAA TRACON SMA TRACON (SMA)
08:18 32.8681 -97.2081 176° South 216 249 8,600 -1,200 Descending FAA TRACON SMA TRACON (SMA)
08:18 32.8453 -97.2061 177° South 212 244 8,200 -1,260 Descending FAA TRACON SMA TRACON (SMA)
08:19 32.8275 -97.2050 177° South 208 239 7,800 -1,080 Descending FAA TRACON SMA TRACON (SMA)
08:19 32.8097 -97.2039 176° South 207 238 7,500 -1,200 Descending FAA TRACON SMA TRACON (SMA)
08:19 32.7878 -97.2022 176° South 204 235 7,000 -1,200 Descending FAA TRACON SMA TRACON (SMA)
08:20 32.7703 -97.2008 176° South 203 234 6,700 -1,080 Descending FAA TRACON SMA TRACON (SMA)
08:20 32.7533 -97.1994 166° South 202 232 6,300 -1,500 Descending FAA TRACON SMA TRACON (SMA)
08:20 32.7322 -97.1933 128° Southeast 204 235 5,700 -1,440 Descending FAA TRACON SMA TRACON (SMA)
08:21 32.7200 -97.1744 107° East 199 229 5,300 -1,020 Descending FAA TRACON SMA TRACON (SMA)
08:21 32.7156 -97.1572 85° East 187 215 5,000 -1,200 Descending FAA TRACON SMA TRACON (SMA)
08:21 32.7167 -97.1406 84° East 174 200 4,600 -1,680 Descending FAA TRACON SMA TRACON (SMA)
08:22 32.7183 -97.1225 85° East 173 199 4,000 -1,680 Descending FAA TRACON SMA TRACON (SMA)
08:22 32.7197 -97.1042 66° East 179 206 3,500 -1,200 Descending FAA TRACON SMA TRACON (SMA)
08:22 32.7272 -97.0842 40° Northeast 182 209 3,200 -600 Descending FAA TRACON SMA TRACON (SMA)
08:23 32.7381 -97.0733 34° Northeast 167 192 3,100 -480 Descending FAA TRACON SMA TRACON (SMA)
08:23 32.7492 -97.0644 18° North 159 183 2,900 -600 Descending FAA TRACON SMA TRACON (SMA)
08:23 32.7656 -97.0581 North 160 184 2,700 -600 Descending FAA TRACON SMA TRACON (SMA)
08:24 32.7781 -97.0561 North 149 171 2,500 -780 Descending FAA TRACON SMA TRACON (SMA)
08:24 32.7897 -97.0550 359° North 139 160 2,200 -780 Descending FAA TRACON SMA TRACON (SMA)
08:24 32.8031 -97.0553 North 128 147 2,000 -600 Descending FAA TRACON SMA TRACON (SMA)
08:25 32.8139 -97.0550 360° North 126 145 1,800 -600 Descending FAA TRACON SMA TRACON (SMA)
08:25 32.8250 -97.0550 North 127 146 1,600 -780 Descending FAA TRACON SMA TRACON (SMA)
08:25 32.8383 -97.0547 360° North 125 144 1,300 -660 Descending FAA TRACON SMA TRACON (SMA)
08:26 32.8492 -97.0547 360° North 125 144 1,200 -480 Descending FAA TRACON SMA TRACON (SMA)
08:26 32.8603 -97.0547 359° North 129 148 1,000 -780 Descending FAA TRACON SMA TRACON (SMA)
08:26 32.8750 -97.0550 22° Northeast 135 155 700  Descending FAA TRACON SMA TRACON (SMA)
08:34 33.0340 -97.1155 147° Southeast  Level FlightAware Approximate
08:35 33.1236 -97.0448 177° South  Level FlightAware Approximate
08:36 33.2133 -96.9739 189° South  Level FlightAware Approximate
08:37 33.3029 -96.9029 196° South  Level FlightAware Approximate
08:38 33.3925 -96.8317 200° South  Level FlightAware Approximate
08:39 33.4926 -96.7885 200° South  Level FlightAware Approximate
08:40 33.5807 -96.7145 202° Southwest  Level FlightAware Approximate
08:41 33.6688 -96.6405 204° Southwest  Level FlightAware Approximate
08:42 33.7568 -96.5663 205° Southwest  Level FlightAware Approximate
08:43 33.8448 -96.4919 206° Southwest  Level FlightAware Approximate
08:44 33.9327 -96.4174 207° Southwest  Level FlightAware Approximate
08:45 34.0206 -96.3427 208° Southwest  Level FlightAware Approximate
08:46 34.1084 -96.2678 208° Southwest  Level FlightAware Approximate
08:47 34.1962 -96.1928 209° Southwest  Level FlightAware Approximate
08:48 34.2950 -96.2235 206° Southwest  Level FlightAware Approximate
08:49 34.3812 -96.1458 207° Southwest  Level FlightAware Approximate
08:50 34.4674 -96.0678 208° Southwest  Level FlightAware Approximate
08:51 34.5535 -95.9897 208° Southwest  Level FlightAware Approximate
08:52 34.6396 -95.9115 209° Southwest  Level FlightAware Approximate
08:53 34.7256 -95.8331 209° Southwest  Level FlightAware Approximate
08:54 34.8116 -95.7545 210° Southwest  Level FlightAware Approximate
08:55 34.9038 -95.7119 209° Southwest  Level FlightAware Approximate
08:56 34.9936 -95.6398 210° Southwest  Level FlightAware Approximate
08:57 35.0777 -95.5581 210° Southwest  Level FlightAware Approximate
08:58 35.1604 -95.4740 210° Southwest  Level FlightAware Approximate
08:59 35.2444 -95.3920 211° Southwest  Level FlightAware Approximate
09:00 35.3328 -95.3173 211° Southwest  Level FlightAware Approximate
09:01 35.3681 -95.2817 211° Southwest  Level FlightAware Approximate
09:02 35.4033 -95.2461 211° Southwest  Level FlightAware Approximate
09:03 35.4340 -95.2151 211° Southwest  Level FlightAware Approximate
09:04 35.4647 -95.1840 212° Southwest  Level FlightAware Approximate
09:05 35.4954 -95.1529 212° Southwest  Level FlightAware Approximate
09:06 35.5261 -95.1218 212° Southwest  Level FlightAware Approximate
09:07 35.5568 -95.0906 212° Southwest  Level FlightAware Approximate
09:08 35.5874 -95.0595 212° Southwest  Level FlightAware Approximate
09:09 35.6181 -95.0283 212° Southwest  Level FlightAware Approximate
09:10 35.6504 -94.9996 212° Southwest  Level FlightAware Approximate
09:11 35.6810 -94.9684 212° Southwest  Level FlightAware Approximate
09:12 35.7116 -94.9371 212° Southwest  Level FlightAware Approximate
09:13 35.7422 -94.9058 213° Southwest  Level FlightAware Approximate
09:14 35.7728 -94.8745 213° Southwest  Level FlightAware Approximate
09:15 35.8034 -94.8431 213° Southwest  Level FlightAware Approximate
09:16 35.8340 -94.8117 213° Southwest  Level FlightAware Approximate
09:17 35.8646 -94.7803 213° Southwest  Level FlightAware Approximate
09:18 35.8952 -94.7489 213° Southwest  Level FlightAware Approximate
09:19 35.9257 -94.7174 213° Southwest  Level FlightAware Approximate
09:20 35.9542 -94.6830 213° Southwest  Level FlightAware Approximate
09:21 35.9826 -94.6487 213° Southwest  Level FlightAware Approximate
09:22 36.0110 -94.6142 214° Southwest  Level FlightAware Approximate
09:23 36.0394 -94.5798 214° Southwest  Level FlightAware Approximate
09:24 36.0678 -94.5453 214° Southwest  Level FlightAware Approximate
09:25 36.0962 -94.5108 214° Southwest  Level FlightAware Approximate
09:26 36.1246 -94.4763 214° Southwest  Level FlightAware Approximate
09:27 36.1530 -94.4418 214° Southwest  Level FlightAware Approximate
09:28 36.1813 -94.4072 214° Southwest  Level FlightAware Approximate
09:29 36.2097 -94.3726 214° Southwest  Level FlightAware Approximate
09:30 36.2380 -94.3380 215° Southwest  Level FlightAware Approximate
09:31 36.2663 -94.3034 215° Southwest  Level FlightAware Approximate
09:32 36.2947 -94.2687 215° Southwest  Level FlightAware Approximate
09:33 36.3230 -94.2340 215° Southwest  Level FlightAware Approximate
09:34 36.3513 -94.1993 215° Southwest  Level FlightAware Approximate
09:35 36.3796 -94.1645 215° Southwest  Level FlightAware Approximate
09:36 36.4078 -94.1298 215° Southwest  Level FlightAware Approximate
09:37 36.4361 -94.0950 215° Southwest  Level FlightAware Approximate
09:38 36.4644 -94.0602 215° Southwest  Level FlightAware Approximate
09:39 36.4926 -94.0253 216° Southwest  Level FlightAware Approximate
09:40 36.5209 -93.9904 216° Southwest  Level FlightAware Approximate
09:41 36.5491 -93.9556 216° Southwest  Level FlightAware Approximate
09:42 36.5773 -93.9206 216° Southwest  Level FlightAware Approximate
09:43 36.6052 -93.8853 216° Southwest  Level FlightAware Approximate
09:44 36.6304 -93.8469 216° Southwest  Level FlightAware Approximate
09:45 36.6556 -93.8085 216° Southwest  Level FlightAware Approximate
09:46 36.6808 -93.7701 216° Southwest  Level FlightAware Approximate
09:47 36.7059 -93.7317 217° Southwest  Level FlightAware Approximate
09:48 36.7310 -93.6931 217° Southwest  Level FlightAware Approximate
09:49 36.7559 -93.6544 217° Southwest  Level FlightAware Approximate
09:50 36.7808 -93.6157 217° Southwest  Level FlightAware Approximate
09:51 36.8058 -93.5770 217° Southwest  Level FlightAware Approximate
09:52 36.8307 -93.5382 217° Southwest  Level FlightAware Approximate
09:53 36.8555 -93.4994 217° Southwest  Level FlightAware Approximate
09:54 36.8804 -93.4606 218° Southwest  Level FlightAware Approximate
09:55 36.9053 -93.4217 218° Southwest  Level FlightAware Approximate
09:56 36.9301 -93.3829 218° Southwest  Level FlightAware Approximate
09:57 36.9550 -93.3440 218° Southwest  Level FlightAware Approximate
09:58 36.9798 -93.3051 218° Southwest  Level FlightAware Approximate
09:59 37.0046 -93.2661 218° Southwest  Level FlightAware Approximate
10:00 37.0294 -93.2271 218° Southwest  Level FlightAware Approximate
10:01 37.0542 -93.1882 218° Southwest  Level FlightAware Approximate
10:02 37.0790 -93.1491 219° Southwest  Level FlightAware Approximate
10:03 37.1037 -93.1101 219° Southwest  Level FlightAware Approximate
10:04 37.1285 -93.0710 219° Southwest  Level FlightAware Approximate
10:05 37.1532 -93.0319 219° Southwest  Level FlightAware Approximate
10:06 37.1780 -92.9928 219° Southwest  Level FlightAware Approximate
10:07 37.2027 -92.9537 219° Southwest  Level FlightAware Approximate
10:08 37.2274 -92.9145 219° Southwest  Level FlightAware Approximate
10:09 37.2520 -92.8753 219° Southwest  Level FlightAware Approximate
10:10 37.2767 -92.8361 219° Southwest  Level FlightAware Approximate
10:11 37.3014 -92.7968 220° Southwest  Level FlightAware Approximate
10:12 37.3260 -92.7575 220° Southwest  Level FlightAware Approximate
10:13 37.3507 -92.7182 220° Southwest  Level FlightAware Approximate
10:14 37.3736 -92.6816 220° Southwest  Level FlightAware Approximate
10:15 37.3965 -92.6449 220° Southwest  Level FlightAware Approximate
10:16 37.4195 -92.6082 220° Southwest  Level FlightAware Approximate
10:17 37.4424 -92.5714 220° Southwest  Level FlightAware Approximate
10:18 37.4653 -92.5347 220° Southwest  Level FlightAware Approximate
10:19 37.4882 -92.4979 220° Southwest  Level FlightAware Approximate
10:20 37.5111 -92.4611 220° Southwest  Level FlightAware Approximate
10:21 37.5340 -92.4243 221° Southwest  Level FlightAware Approximate
10:22 37.5568 -92.3875 221° Southwest  Level FlightAware Approximate
10:23 37.5797 -92.3506 221° Southwest  Level FlightAware Approximate
10:24 37.6025 -92.3137 221° Southwest  Level FlightAware Approximate
10:25 37.6253 -92.2768 221° Southwest  Level FlightAware Approximate
10:26 37.6482 -92.2399 221° Southwest  Level FlightAware Approximate
10:27 37.6710 -92.2029 221° Southwest  Level FlightAware Approximate
10:28 37.6937 -92.1659 221° Southwest  Level FlightAware Approximate
10:29 37.7165 -92.1289 221° Southwest  Level FlightAware Approximate
10:30 37.7393 -92.0919 221° Southwest  Level FlightAware Approximate
10:31 37.7621 -92.0548 221° Southwest  Level FlightAware Approximate
10:32 37.7848 -92.0178 222° Southwest  Level FlightAware Approximate
10:33 37.8075 -91.9807 222° Southwest  Level FlightAware Approximate
10:34 37.8303 -91.9436 222° Southwest  Level FlightAware Approximate
10:35 37.8530 -91.9064 222° Southwest  Level FlightAware Approximate
10:36 37.8757 -91.8693 222° Southwest  Level FlightAware Approximate
10:37 37.8984 -91.8321 222° Southwest  Level FlightAware Approximate
10:38 37.9210 -91.7949 222° Southwest  Level FlightAware Approximate
10:39 37.9437 -91.7576 222° Southwest  Level FlightAware Approximate
10:40 37.9664 -91.7204 222° Southwest  Level FlightAware Approximate
10:41 37.9890 -91.6831 222° Southwest  Level FlightAware Approximate
10:42 38.0116 -91.6458 222° Southwest  Level FlightAware Approximate
10:43 38.0342 -91.6085 222° Southwest  Level FlightAware Approximate
10:44 38.0569 -91.5711 223° Southwest  Level FlightAware Approximate
10:45 38.0794 -91.5338 223° Southwest  Level FlightAware Approximate
10:46 38.1020 -91.4964 223° Southwest  Level FlightAware Approximate
10:47 38.1246 -91.4590 223° Southwest  Level FlightAware Approximate
10:48 38.1472 -91.4215 223° Southwest  Level FlightAware Approximate
10:49 38.1684 -91.3862 223° Southwest  Level FlightAware Approximate
10:50 38.1897 -91.3508 223° Southwest  Level FlightAware Approximate
10:51 38.2110 -91.3154 223° Southwest  Level FlightAware Approximate
10:52 38.2322 -91.2800 223° Southwest  Level FlightAware Approximate
10:53 38.2540 -91.2436 223° Southwest  Level FlightAware Approximate
10:54 38.2758 -91.2072 223° Southwest  Level FlightAware Approximate
10:55 38.2976 -91.1708 223° Southwest  Level FlightAware Approximate
10:56 38.3194 -91.1343 223° Southwest  Level FlightAware Approximate
10:57 38.3411 -91.0978 223° Southwest  Level FlightAware Approximate
10:58 38.3629 -91.0613 224° Southwest  Level FlightAware Approximate
10:59 38.3846 -91.0248 224° Southwest  Level FlightAware Approximate
11:00 38.4063 -90.9883 224° Southwest  Level FlightAware Approximate
11:01 38.4281 -90.9517 224° Southwest  Level FlightAware Approximate
11:02 38.4498 -90.9151 224° Southwest  Level FlightAware Approximate
11:03 38.4715 -90.8785 224° Southwest  Level FlightAware Approximate
11:04 38.4931 -90.8419 224° Southwest  Level FlightAware Approximate
11:05 38.5148 -90.8053 224° Southwest  Level FlightAware Approximate
11:06 38.5365 -90.7686 224° Southwest  Level FlightAware Approximate
11:07 38.5581 -90.7319 224° Southwest  Level FlightAware Approximate
11:08 38.5798 -90.6952 224° Southwest  Level FlightAware Approximate
11:09 38.6014 -90.6584 224° Southwest  Level FlightAware Approximate
11:10 38.6230 -90.6217 224° Southwest  Level FlightAware Approximate
11:11 38.6444 -90.5852 224° Southwest  Level FlightAware Approximate
11:11 32.9253 -97.0306 North 175 201 2,000  Level FAA TRACON SMA TRACON (SMA)
11:11 32.9436 -97.0289 North 201 231 2,500 2,820 Climbing FAA TRACON SMA TRACON (SMA)
11:12 32.9672 -97.0272 356° North 221 254 3,900 3,600 Climbing FAA TRACON SMA TRACON (SMA)
11:12 32.9858 -97.0289 North 220 253 4,900 3,000 Climbing FAA TRACON SMA TRACON (SMA)
11:12 33.0050 -97.0283 North 222 255 5,900 3,420 Climbing FAA TRACON SMA TRACON (SMA)
11:13 33.0289 -97.0272 North 223 257 7,200 2,820 Climbing FAA TRACON SMA TRACON (SMA)
11:13 33.0489 -97.0264 North 228 262 7,800 2,040 Climbing FAA TRACON SMA TRACON (SMA)
11:13 33.0703 -97.0253 16° North 245 282 8,600 2,580 Climbing FAA TRACON SMA TRACON (SMA)
11:14 33.0981 -97.0158 26° Northeast 269 310 9,600 2,880 Climbing FAA TRACON SMA TRACON (SMA)
11:14 33.1194 -97.0036 24° Northeast 277 319 10,500 2,880 Climbing FAA TRACON SMA TRACON (SMA)
11:14 33.1419 -96.9914 24° Northeast 285 328 11,500 3,300 Climbing FAA TRACON SMA TRACON (SMA)
11:15 33.1703 -96.9761 23° Northeast 291 335 12,700 3,300 Climbing FAA TRACON SMA TRACON (SMA)
11:15 33.1936 -96.9642 26° Northeast 294 338 13,700 3,000 Climbing FAA TRACON SMA TRACON (SMA)
11:15 33.2164 -96.9511 25° Northeast 296 341 14,700 3,180 Climbing FAA TRACON SMA TRACON (SMA)
11:16 33.2458 -96.9350 24° Northeast 299 344 15,900 2,880 Climbing FAA TRACON SMA TRACON (SMA)
11:16 33.2692 -96.9228 25° Northeast 300 345 16,700 1,680 Climbing FAA TRACON SMA TRACON (SMA)
11:16 33.2925 -96.9100 26° Northeast 299 344 17,000 420 Climbing FAA TRACON SMA TRACON (SMA)
11:17 33.3244 -96.8917 24° Northeast 324 373 17,000 120 Level FAA TRACON SMA TRACON (SMA)
11:17 33.3522 -96.8767 24° Northeast 351 404 17,100 1,860 Climbing FAA TRACON SMA TRACON (SMA)
11:18 33.4164 -96.8422 24° Northeast 366 421 18,900 2,460 Climbing FAA TRACON SMA TRACON (SMA)
11:18 33.4456 -96.8264 26° Northeast 372 428 19,600 2,100 Climbing FAA TRACON SMA TRACON (SMA)
11:18 33.4744 -96.8097 28° Northeast 376 433 20,300 1,920 Climbing FAA TRACON SMA TRACON (SMA)
11:19 33.5036 -96.7908 28° Northeast 382 440 20,900 2,100 Climbing FAA TRACON SMA TRACON (SMA)
11:19 33.5403 -96.7672 29° Northeast 388 447 21,700 2,220 Climbing FAA TRACON SMA TRACON (SMA)
11:19 33.5700 -96.7475 28° Northeast 393 452 22,400 1,920 Climbing FAA TRACON SMA TRACON (SMA)
11:20 33.6000 -96.7286 28° Northeast 395 455 23,000 1,200 Climbing FAA TRACON SMA TRACON (SMA)
11:20 33.6375 -96.7044 28° Northeast 397 457 23,200 1,500 Climbing FAA TRACON SMA TRACON (SMA)
11:21 33.6981 -96.6661 27° Northeast 400 460 24,500 1,980 Climbing FAA TRACON SMA TRACON (SMA)
11:21 33.7369 -96.6425 29° Northeast 406 467 25,200 1,920 Climbing FAA TRACON SMA TRACON (SMA)
11:21 33.7681 -96.6217 28° Northeast 410 472 25,800 1,860 Climbing FAA TRACON SMA TRACON (SMA)
11:22 33.8069 -96.5964 28° Northeast 414 476 26,500 1,620 Climbing FAA TRACON SMA TRACON (SMA)
11:23 33.9156 -96.5275 27° Northeast 409 471 28,300 1,800 Climbing Fort Worth Center
11:24 34.0194 -96.4636 33° Northeast 409 471 30,500 1,800 Climbing Fort Worth Center
11:25 34.1211 -96.3850 36° Northeast 409 471 32,000 1,140 Climbing Fort Worth Center
11:26 34.2186 -96.3008 34° Northeast 401 461 32,800 480 Climbing Fort Worth Center
11:27 34.3181 -96.2192 34° Northeast 411 473 33,000 60 Climbing Fort Worth Center
11:28 34.4111 -96.1422 34° Northeast 438 504 33,000  Level Fort Worth Center
11:29 34.5125 -96.0603 33° Northeast 443 510 33,000  Level Fort Worth Center
11:30 34.6158 -95.9778 35° Northeast 438 504 33,000  Level Fort Worth Center
11:31 34.7169 -95.8928 35° Northeast 438 504 33,000  Level Fort Worth Center
11:32 34.8183 -95.8050 34° Northeast 438 504 33,000  Level Fort Worth Center
11:33 34.9336 -95.7092 38° Northeast 444 511 33,000  Level Fort Worth Center
11:34 35.0325 -95.6158 38° Northeast 444 511 33,000  Level Fort Worth Center
11:35 35.1292 -95.5225 38° Northeast 444 511 33,000  Level Fort Worth Center
11:36 35.2300 -95.4261 37° Northeast 449 517 33,000  Level Fort Worth Center
11:37 35.3306 -95.3322 36° Northeast 459 528 33,000  Level Fort Worth Center
11:37 35.3836 -95.2847 40° Northeast 457 526 33,000  Level Memphis Center
11:38 35.4706 -95.1956 37° Northeast 457 526 33,000  Level Memphis Center
11:39 35.5700 -95.1019 38° Northeast 457 526 33,000  Level Memphis Center
11:40 35.6717 -95.0028 38° Northeast 457 526 33,000  Level Memphis Center
11:41 35.7733 -94.9061 38° Northeast 457 526 33,000  Level Memphis Center
11:42 35.8750 -94.8067 38° Northeast 457 526 33,000  Level Memphis Center
11:43 35.9742 -94.7122 40° Northeast 457 526 33,000  Level Memphis Center
11:44 36.0714 -94.6119 38° Northeast 452 520 33,000  Level Memphis Center
11:46 36.2858 -94.4006 39° Northeast 466 536 33,000  Level Kansas City Center
11:47 36.3861 -94.2997 38° Northeast 466 536 33,000  Level Kansas City Center
11:48 36.4858 -94.2039 39° Northeast 466 536 33,000  Level Kansas City Center
11:49 36.5858 -94.1025 39° Northeast 466 536 33,000  Level Kansas City Center
11:50 36.6856 -94.0011 38° Northeast 466 536 33,000  Level Kansas City Center
11:51 36.7872 -93.9017 39° Northeast 466 536 33,000  Level Kansas City Center
11:52 36.8869 -93.8022 37° Northeast 466 536 33,000  Level Kansas City Center
11:53 36.9886 -93.7078 38° Northeast 461 531 33,000  Level Kansas City Center
11:54 37.0919 -93.6078 39° Northeast 456 525 33,000  Level Kansas City Center
11:55 37.1872 -93.5103 38° Northeast 456 525 33,000  Level Kansas City Center
11:56 37.2886 -93.4097 42° Northeast 456 525 33,000 -300 Level Kansas City Center
11:57 37.3836 -93.3036 42° Northeast 456 525 32,400 -840 Descending Kansas City Center
11:58 37.4783 -93.1975 43° Northeast 456 525 31,400 -900 Descending Kansas City Center
11:59 37.5606 -93.0992 42° Northeast 450 518 30,600 -900 Descending Kansas City Center
12:00 37.6553 -92.9897 43° Northeast 450 518 29,600 -1,020 Descending Kansas City Center
12:01 37.7456 -92.8831 43° Northeast 450 518 28,600 -1,020 Descending Kansas City Center
12:02 37.8339 -92.7786 42° Northeast 440 506 27,600 -1,080 Descending Kansas City Center
12:03 37.9242 -92.6739 43° Northeast 434 499 26,500 -1,020 Descending Kansas City Center
12:04 38.0100 -92.5714 43° Northeast 434 499 25,600 -1,020 Descending Kansas City Center
12:05 38.0939 -92.4717 44° Northeast 429 494 24,500 -840 Descending Kansas City Center
12:06 38.1756 -92.3717 43° Northeast 418 481 24,000 -300 Descending Kansas City Center
12:07 38.2675 -92.2606 43° Northeast 413 475 24,000 -120 Level Kansas City Center
12:08 38.3489 -92.1628 65° Northeast 408 470 23,800 -420 Descending Kansas City Center
12:09 38.3964 -92.0342 68° East 390 449 23,200 -600 Descending Kansas City Center
12:10 38.4394 -91.9003 70° East 395 455 22,600 -660 Descending Kansas City Center
12:11 38.4761 -91.7717 70° East 390 449 21,900 -1,500 Descending Kansas City Center
12:12 38.5128 -91.6403 71° East 390 449 19,700 -2,040 Descending Kansas City Center
12:13 38.5453 -91.5194 73° East 383 441 17,900 -1,800 Descending Kansas City Center
12:14 38.5753 -91.3961 70° East 371 427 16,100 -1,440 Descending Kansas City Center
12:15 38.6058 -91.2911 79° East 352 405 15,100 -720 Descending Kansas City Center
12:16 38.6261 -91.1569 70° East 340 391 15,000 -120 Descending FAA TRACON SMA TRACON (SMA)
12:16 38.6361 -91.1214 69° East 343 395 15,000  Level FAA TRACON SMA TRACON (SMA)
12:17 38.6467 -91.0861 73° East 347 399 15,000 -360 Level FAA TRACON SMA TRACON (SMA)
12:17 38.6550 -91.0506 72° East 344 396 14,800 -1,620 Descending FAA TRACON SMA TRACON (SMA)
12:17 38.6661 -91.0067 69° East 339 390 14,000 -2,220 Descending FAA TRACON SMA TRACON (SMA)
12:18 38.6764 -90.9717 72° East 338 389 13,300 -2,160 Descending FAA TRACON SMA TRACON (SMA)
12:18 38.6872 -90.9286 79° East 333 383 12,500 -1,740 Descending FAA TRACON SMA TRACON (SMA)
12:18 38.6922 -90.8942 88° East 325 374 12,200 -960 Descending FAA TRACON SMA TRACON (SMA)
12:18 38.6933 -90.8600 86° East 315 362 11,900 -1,080 Descending FAA TRACON SMA TRACON (SMA)
12:19 38.6956 -90.8192 89° East 302 348 11,500 -1,200 Descending FAA TRACON SMA TRACON (SMA)
12:19 38.6961 -90.7881 88° East 289 333 11,100 -1,440 Descending FAA TRACON SMA TRACON (SMA)
12:19 38.6969 -90.7567 86° East 286 329 10,600 -1,800 Descending FAA TRACON SMA TRACON (SMA)
12:20 38.6989 -90.7178 87° East 285 328 9,900 -1,620 Descending FAA TRACON SMA TRACON (SMA)
12:20 38.7003 -90.6872 86° East 282 325 9,500 -1,440 Descending FAA TRACON SMA TRACON (SMA)
12:20 38.7019 -90.6567 88° East 281 323 9,000 -1,800 Descending FAA TRACON SMA TRACON (SMA)
12:21 38.7031 -90.6183 87° East 280 322 8,300 -1,500 Descending FAA TRACON SMA TRACON (SMA)
12:21 38.7044 -90.5881 87° East 278 320 8,000 -480 Descending FAA TRACON SMA TRACON (SMA)
12:21 38.7058 -90.5581 87° East 275 316 8,000  Level FAA TRACON SMA TRACON (SMA)
12:22 38.7072 -90.5206 87° East 274 315 8,000  Level FAA TRACON SMA TRACON (SMA)
12:22 38.7083 -90.4906 89° East 275 316 8,000  Level FAA TRACON SMA TRACON (SMA)
12:22 38.7089 -90.4606 109° East 274 315 8,000  Level FAA TRACON SMA TRACON (SMA)
12:23 38.7011 -90.4317 125° Southeast 283 326 8,000  Level FAA TRACON SMA TRACON (SMA)
12:23 38.6853 -90.4022 120° Southeast 266 306 8,000 -840 Level FAA TRACON SMA TRACON (SMA)
12:24 38.6744 -90.3786 120° Southeast 249 287 7,400 -1,680 Descending FAA TRACON SMA TRACON (SMA)
12:24 38.6619 -90.3506 121° Southeast 238 274 6,800 -1,800 Descending FAA TRACON SMA TRACON (SMA)
12:24 38.6517 -90.3283 121° Southeast 233 268 6,300 -1,800 Descending FAA TRACON SMA TRACON (SMA)
12:24 38.6419 -90.3072 121° Southeast 229 264 5,700 -1,980 Descending FAA TRACON SMA TRACON (SMA)
12:25 38.6294 -90.2803 121° Southeast 228 262 5,000 -1,680 Descending FAA TRACON SMA TRACON (SMA)
12:25 38.6194 -90.2586 119° Southeast 228 262 4,600 -1,380 Descending FAA TRACON SMA TRACON (SMA)
12:25 38.6106 -90.2383 123° Southeast 219 252 4,100 -960 Descending FAA TRACON SMA TRACON (SMA)
12:26 38.5989 -90.2153 105° East 202 232 4,000 -300 Descending FAA TRACON SMA TRACON (SMA)
12:26 38.5950 -90.1972 42° Northeast 183 211 3,900 -180 Descending FAA TRACON SMA TRACON (SMA)
12:26 38.6069 -90.1833 18° North 175 201 3,900 -360 Level FAA TRACON SMA TRACON (SMA)
12:27 38.6197 -90.1781 18° North 162 186 3,700 -600 Descending FAA TRACON SMA TRACON (SMA)